Shelbyville, IL (62565)

3:19 PM CST on February 24, 2017 (GMT -0600)
MUP779 | | Change Station

Elev 619 ft 39.32 °N, 88.74 °W | Updated 1 day ago

Overcast
Overcast
73.0 °F
Feels Like 73.0 °F
N
5.0
Wind Variable Wind from SW
Gusts 8.0 mph

Today
High -- | Low -- °F
--% Chance of Precip.
Yesterday
High -- | Low -- °F
Precip. -- in
Pressure 29.59 in
Visibility 10.0 miles
Clouds Mostly Cloudy 2100 ft
Mostly Cloudy 3400 ft
Overcast 4800 ft
Dew Point Not available.
Humidity Not available.
Rainfall 0.01 in
Snow Depth Not available.
6:34 AM 5:42 PM
Waning Crescent, 4% visible
METAR K1H2 242055Z AUTO 24018G21KT 10SM BKN021 BKN034 OVC048 15/11 A2959 RMK AO2 LTG DSNT E T01450109
Pressure 29.59 in
Visibility 10.0 miles
Clouds Mostly Cloudy 2100 ft
Mostly Cloudy 3400 ft
Overcast 4800 ft
Dew Point Not available.
Humidity Not available.
Rainfall 0.01 in
Snow Depth Not available.
6:34 AM 5:42 PM
Waning Crescent, 4% visible
METAR K1H2 242055Z AUTO 24018G21KT 10SM BKN021 BKN034 OVC048 15/11 A2959 RMK AO2 LTG DSNT E T01450109

Get Your Daily Forecast Email!

Thanks for signing up!

Be on the lookout for a verification email in your inbox.

You'll start receiving the daily forecast at 8 AM.

×

10-Day Weather Forecast

Almanac

Astronomy

Feb. 24, 2017 Rise Set
Actual Time
Civil Twilight
Nautical Twilight
Astronomical Twilight
Moon
Length of Visible Light
Length of Day
Tomorrow will be .
, % of the Moon is Illuminated

Today's Extremes

State Highs State Lows

Community

WunderPhotos

Upload Photos

1,962,540 photos uploaded!

WunderBlog® & News

Nearby

Air Quality

  Air Quality AQ Index Pollutant
Not available.

Snow Depth

Station Depth Elevation

Earthquake Activity

City Distance Mag. Time & Date
Minimum magnitude displayed is 2.5.

Coastal Water Temperatures

Place Temperature

Stations

Nearby Weather Stations

Station Location Temp. Windchill Dew Point Humidity Wind Precip. Elev Updated Type
                   

Watches & Warnings

There are currently no watches in effect.